sensor_id;sensor_type;location;lat;lon;timestamp;P1;durP1;ratioP1;P2;durP2;ratioP2
34535;SDS011;20779;55.596;37.538;2022-07-23T00:00:55;6.93;;;2.60;;
34535;SDS011;20779;55.596;37.538;2022-07-23T00:03:22;5.30;;;2.35;;
34535;SDS011;20779;55.596;37.538;2022-07-23T00:05:48;4.55;;;2.90;;
34535;SDS011;20779;55.596;37.538;2022-07-23T00:08:14;5.28;;;2.50;;
34535;SDS011;20779;55.596;37.538;2022-07-23T00:10:41;4.88;;;2.63;;
34535;SDS011;20779;55.596;37.538;2022-07-23T00:13:07;7.03;;;2.47;;
34535;SDS011;20779;55.596;37.538;2022-07-23T00:15:34;5.95;;;2.47;;
34535;SDS011;20779;55.596;37.538;2022-07-23T00:18:00;7.65;;;2.30;;
34535;SDS011;20779;55.596;37.538;2022-07-23T00:20:26;11.00;;;2.83;;
34535;SDS011;20779;55.596;37.538;2022-07-23T00:22:53;6.63;;;2.72;;
34535;SDS011;20779;55.596;37.538;2022-07-23T00:25:21;6.22;;;2.88;;
34535;SDS011;20779;55.596;37.538;2022-07-23T00:27:48;4.68;;;2.40;;
34535;SDS011;20779;55.596;37.538;2022-07-23T00:30:15;7.32;;;2.53;;
34535;SDS011;20779;55.596;37.538;2022-07-23T00:33:01;6.95;;;2.92;;
34535;SDS011;20779;55.596;37.538;2022-07-23T00:35:31;3.65;;;2.58;;
34535;SDS011;20779;55.596;37.538;2022-07-23T00:38:01;7.50;;;2.70;;
34535;SDS011;20779;55.596;37.538;2022-07-23T00:40:28;6.32;;;2.53;;
34535;SDS011;20779;55.596;37.538;2022-07-23T00:42:56;5.03;;;2.50;;
34535;SDS011;20779;55.596;37.538;2022-07-23T00:45:22;6.03;;;2.60;;
34535;SDS011;20779;55.596;37.538;2022-07-23T00:47:48;9.98;;;2.75;;
34535;SDS011;20779;55.596;37.538;2022-07-23T00:50:15;4.20;;;2.30;;
34535;SDS011;20779;55.596;37.538;2022-07-23T00:52:41;4.05;;;2.60;;
34535;SDS011;20779;55.596;37.538;2022-07-23T00:55:09;3.50;;;2.30;;
34535;SDS011;20779;55.596;37.538;2022-07-23T00:57:37;5.75;;;2.55;;
34535;SDS011;20779;55.596;37.538;2022-07-23T01:00:05;4.32;;;2.28;;
34535;SDS011;20779;55.596;37.538;2022-07-23T01:02:36;5.13;;;2.22;;
34535;SDS011;20779;55.596;37.538;2022-07-23T01:05:04;5.20;;;2.25;;
34535;SDS011;20779;55.596;37.538;2022-07-23T01:07:31;4.40;;;2.58;;
34535;SDS011;20779;55.596;37.538;2022-07-23T01:09:59;7.60;;;2.53;;
34535;SDS011;20779;55.596;37.538;2022-07-23T01:12:27;4.90;;;2.58;;
34535;SDS011;20779;55.596;37.538;2022-07-23T01:14:54;5.50;;;2.55;;
34535;SDS011;20779;55.596;37.538;2022-07-23T01:17:22;7.68;;;2.45;;
34535;SDS011;20779;55.596;37.538;2022-07-23T01:19:48;3.00;;;2.25;;
34535;SDS011;20779;55.596;37.538;2022-07-23T01:22:15;5.50;;;2.50;;
34535;SDS011;20779;55.596;37.538;2022-07-23T01:24:46;7.95;;;2.50;;
34535;SDS011;20779;55.596;37.538;2022-07-23T01:27:13;7.25;;;3.10;;
34535;SDS011;20779;55.596;37.538;2022-07-23T01:29:40;5.63;;;2.67;;
34535;SDS011;20779;55.596;37.538;2022-07-23T01:32:12;7.18;;;3.08;;
34535;SDS011;20779;55.596;37.538;2022-07-23T01:34:38;7.00;;;2.83;;
34535;SDS011;20779;55.596;37.538;2022-07-23T01:37:06;4.88;;;2.83;;
34535;SDS011;20779;55.596;37.538;2022-07-23T01:39:32;6.50;;;2.70;;
34535;SDS011;20779;55.596;37.538;2022-07-23T01:41:58;5.30;;;3.00;;
34535;SDS011;20779;55.596;37.538;2022-07-23T01:44:26;4.47;;;2.80;;
34535;SDS011;20779;55.596;37.538;2022-07-23T01:46:52;6.15;;;2.85;;
34535;SDS011;20779;55.596;37.538;2022-07-23T01:49:20;7.65;;;2.85;;
34535;SDS011;20779;55.596;37.538;2022-07-23T01:52:15;7.03;;;3.22;;
34535;SDS011;20779;55.596;37.538;2022-07-23T01:54:45;6.95;;;2.72;;
34535;SDS011;20779;55.596;37.538;2022-07-23T01:57:11;5.90;;;2.97;;
34535;SDS011;20779;55.596;37.538;2022-07-23T01:59:38;7.72;;;3.00;;
34535;SDS011;20779;55.596;37.538;2022-07-23T02:02:05;7.63;;;3.05;;
34535;SDS011;20779;55.596;37.538;2022-07-23T02:04:31;6.00;;;2.85;;
34535;SDS011;20779;55.596;37.538;2022-07-23T02:07:02;3.90;;;2.97;;
34535;SDS011;20779;55.596;37.538;2022-07-23T02:09:29;7.70;;;2.90;;
34535;SDS011;20779;55.596;37.538;2022-07-23T02:11:56;6.78;;;2.97;;
34535;SDS011;20779;55.596;37.538;2022-07-23T02:14:23;7.93;;;3.60;;
34535;SDS011;20779;55.596;37.538;2022-07-23T02:16:50;9.38;;;3.30;;
34535;SDS011;20779;55.596;37.538;2022-07-23T02:19:18;5.60;;;3.38;;
34535;SDS011;20779;55.596;37.538;2022-07-23T02:21:44;4.53;;;3.10;;
34535;SDS011;20779;55.596;37.538;2022-07-23T02:24:10;4.45;;;3.03;;
34535;SDS011;20779;55.596;37.538;2022-07-23T02:26:37;5.28;;;2.92;;
34535;SDS011;20779;55.596;37.538;2022-07-23T02:29:05;4.50;;;2.80;;
34535;SDS011;20779;55.596;37.538;2022-07-23T02:31:32;8.75;;;3.33;;
34535;SDS011;20779;55.596;37.538;2022-07-23T02:33:59;7.47;;;3.33;;
34535;SDS011;20779;55.596;37.538;2022-07-23T02:36:26;10.90;;;3.70;;
34535;SDS011;20779;55.596;37.538;2022-07-23T02:38:53;5.93;;;3.58;;
34535;SDS011;20779;55.596;37.538;2022-07-23T02:41:19;6.47;;;3.22;;
34535;SDS011;20779;55.596;37.538;2022-07-23T02:43:45;6.63;;;3.35;;
34535;SDS011;20779;55.596;37.538;2022-07-23T02:46:14;6.15;;;3.33;;
34535;SDS011;20779;55.596;37.538;2022-07-23T02:48:40;8.88;;;4.00;;
34535;SDS011;20779;55.596;37.538;2022-07-23T02:51:06;7.32;;;3.80;;
34535;SDS011;20779;55.596;37.538;2022-07-23T02:53:38;7.22;;;4.13;;
34535;SDS011;20779;55.596;37.538;2022-07-23T02:56:04;15.57;;;4.85;;
34535;SDS011;20779;55.596;37.538;2022-07-23T02:58:30;5.07;;;3.72;;
34535;SDS011;20779;55.596;37.538;2022-07-23T03:00:57;5.60;;;3.95;;
34535;SDS011;20779;55.596;37.538;2022-07-23T03:03:24;6.55;;;3.97;;
34535;SDS011;20779;55.596;37.538;2022-07-23T03:05:51;4.85;;;3.80;;
34535;SDS011;20779;55.596;37.538;2022-07-23T03:08:17;11.13;;;4.28;;
34535;SDS011;20779;55.596;37.538;2022-07-23T03:13:15;6.22;;;3.95;;
34535;SDS011;20779;55.596;37.538;2022-07-23T03:15:41;7.53;;;4.07;;
34535;SDS011;20779;55.596;37.538;2022-07-23T03:18:08;5.03;;;3.78;;
34535;SDS011;20779;55.596;37.538;2022-07-23T03:20:34;6.00;;;4.10;;
34535;SDS011;20779;55.596;37.538;2022-07-23T03:23:01;5.72;;;3.65;;
34535;SDS011;20779;55.596;37.538;2022-07-23T03:25:28;10.80;;;4.55;;
34535;SDS011;20779;55.596;37.538;2022-07-23T03:27:54;7.10;;;4.10;;
34535;SDS011;20779;55.596;37.538;2022-07-23T03:30:20;6.95;;;4.18;;
34535;SDS011;20779;55.596;37.538;2022-07-23T03:32:48;5.82;;;4.45;;
34535;SDS011;20779;55.596;37.538;2022-07-23T03:35:14;13.10;;;4.18;;
34535;SDS011;20779;55.596;37.538;2022-07-23T03:37:49;6.85;;;3.92;;
34535;SDS011;20779;55.596;37.538;2022-07-23T03:40:15;8.45;;;4.50;;
34535;SDS011;20779;55.596;37.538;2022-07-23T03:42:43;7.03;;;4.75;;
34535;SDS011;20779;55.596;37.538;2022-07-23T03:45:09;8.02;;;4.10;;
34535;SDS011;20779;55.596;37.538;2022-07-23T03:47:35;5.60;;;4.07;;
34535;SDS011;20779;55.596;37.538;2022-07-23T03:50:02;7.28;;;4.32;;
34535;SDS011;20779;55.596;37.538;2022-07-23T03:52:28;8.98;;;4.60;;
34535;SDS011;20779;55.596;37.538;2022-07-23T03:54:55;5.25;;;4.13;;
34535;SDS011;20779;55.596;37.538;2022-07-23T03:57:22;6.20;;;4.00;;
34535;SDS011;20779;55.596;37.538;2022-07-23T03:59:49;8.40;;;3.97;;
34535;SDS011;20779;55.596;37.538;2022-07-23T04:02:16;8.45;;;4.43;;
34535;SDS011;20779;55.596;37.538;2022-07-23T04:04:42;8.43;;;4.60;;
34535;SDS011;20779;55.596;37.538;2022-07-23T04:07:08;7.68;;;4.70;;
34535;SDS011;20779;55.596;37.538;2022-07-23T04:09:36;5.68;;;4.93;;
34535;SDS011;20779;55.596;37.538;2022-07-23T04:12:02;9.35;;;4.68;;
34535;SDS011;20779;55.596;37.538;2022-07-23T04:14:29;5.20;;;4.30;;
34535;SDS011;20779;55.596;37.538;2022-07-23T04:16:55;7.07;;;4.72;;
34535;SDS011;20779;55.596;37.538;2022-07-23T04:19:21;5.20;;;4.40;;
34535;SDS011;20779;55.596;37.538;2022-07-23T04:22:00;8.23;;;5.60;;
34535;SDS011;20779;55.596;37.538;2022-07-23T04:24:28;6.20;;;4.20;;
34535;SDS011;20779;55.596;37.538;2022-07-23T04:26:54;10.20;;;5.20;;
34535;SDS011;20779;55.596;37.538;2022-07-23T04:29:20;6.90;;;4.32;;
34535;SDS011;20779;55.596;37.538;2022-07-23T04:31:48;5.55;;;4.07;;
34535;SDS011;20779;55.596;37.538;2022-07-23T04:34:14;6.50;;;4.28;;
34535;SDS011;20779;55.596;37.538;2022-07-23T04:36:40;5.80;;;4.28;;
34535;SDS011;20779;55.596;37.538;2022-07-23T04:39:06;8.48;;;4.38;;
34535;SDS011;20779;55.596;37.538;2022-07-23T04:41:33;6.88;;;4.68;;
34535;SDS011;20779;55.596;37.538;2022-07-23T04:43:59;6.68;;;4.70;;
34535;SDS011;20779;55.596;37.538;2022-07-23T04:46:27;6.53;;;4.93;;
34535;SDS011;20779;55.596;37.538;2022-07-23T04:48:54;7.47;;;4.22;;
34535;SDS011;20779;55.596;37.538;2022-07-23T04:51:20;9.35;;;5.15;;
34535;SDS011;20779;55.596;37.538;2022-07-23T04:53:47;6.18;;;4.90;;
34535;SDS011;20779;55.596;37.538;2022-07-23T04:56:13;6.15;;;4.70;;
34535;SDS011;20779;55.596;37.538;2022-07-23T04:58:39;6.85;;;4.45;;
34535;SDS011;20779;55.596;37.538;2022-07-23T05:01:05;9.10;;;5.10;;
34535;SDS011;20779;55.596;37.538;2022-07-23T05:03:34;6.63;;;4.88;;
34535;SDS011;20779;55.596;37.538;2022-07-23T05:06:00;6.97;;;4.68;;
34535;SDS011;20779;55.596;37.538;2022-07-23T05:08:28;7.82;;;5.20;;
34535;SDS011;20779;55.596;37.538;2022-07-23T05:10:57;8.63;;;4.57;;
34535;SDS011;20779;55.596;37.538;2022-07-23T05:13:23;7.60;;;4.85;;
34535;SDS011;20779;55.596;37.538;2022-07-23T05:15:51;9.25;;;4.80;;
34535;SDS011;20779;55.596;37.538;2022-07-23T05:18:17;8.90;;;4.90;;
34535;SDS011;20779;55.596;37.538;2022-07-23T05:20:43;6.00;;;4.60;;
34535;SDS011;20779;55.596;37.538;2022-07-23T05:23:13;8.65;;;4.63;;
34535;SDS011;20779;55.596;37.538;2022-07-23T05:25:40;11.45;;;5.05;;
34535;SDS011;20779;55.596;37.538;2022-07-23T05:28:07;6.28;;;4.78;;
34535;SDS011;20779;55.596;37.538;2022-07-23T05:30:33;6.15;;;4.85;;
34535;SDS011;20779;55.596;37.538;2022-07-23T05:33:02;8.55;;;5.28;;
34535;SDS011;20779;55.596;37.538;2022-07-23T05:35:28;7.15;;;4.90;;
34535;SDS011;20779;55.596;37.538;2022-07-23T05:38:11;8.35;;;4.78;;
34535;SDS011;20779;55.596;37.538;2022-07-23T05:40:37;7.90;;;5.05;;
34535;SDS011;20779;55.596;37.538;2022-07-23T05:43:04;9.23;;;4.78;;
34535;SDS011;20779;55.596;37.538;2022-07-23T05:45:30;10.02;;;5.20;;
34535;SDS011;20779;55.596;37.538;2022-07-23T05:47:56;12.35;;;5.20;;
34535;SDS011;20779;55.596;37.538;2022-07-23T05:50:27;8.38;;;4.68;;
34535;SDS011;20779;55.596;37.538;2022-07-23T05:53:06;10.52;;;4.82;;
34535;SDS011;20779;55.596;37.538;2022-07-23T05:55:33;7.25;;;4.82;;
34535;SDS011;20779;55.596;37.538;2022-07-23T05:57:59;6.78;;;4.95;;
34535;SDS011;20779;55.596;37.538;2022-07-23T06:00:26;6.50;;;4.90;;
34535;SDS011;20779;55.596;37.538;2022-07-23T06:02:53;11.50;;;5.18;;
34535;SDS011;20779;55.596;37.538;2022-07-23T06:05:19;8.88;;;5.75;;
34535;SDS011;20779;55.596;37.538;2022-07-23T06:07:46;8.43;;;5.07;;
34535;SDS011;20779;55.596;37.538;2022-07-23T06:10:14;9.35;;;5.60;;
34535;SDS011;20779;55.596;37.538;2022-07-23T06:12:40;8.52;;;4.70;;
34535;SDS011;20779;55.596;37.538;2022-07-23T06:15:07;8.23;;;5.55;;
34535;SDS011;20779;55.596;37.538;2022-07-23T06:17:35;9.73;;;5.30;;
34535;SDS011;20779;55.596;37.538;2022-07-23T06:20:02;7.88;;;4.90;;
34535;SDS011;20779;55.596;37.538;2022-07-23T06:22:30;8.02;;;5.45;;
34535;SDS011;20779;55.596;37.538;2022-07-23T06:24:56;8.20;;;5.10;;
34535;SDS011;20779;55.596;37.538;2022-07-23T06:27:22;7.35;;;5.00;;
34535;SDS011;20779;55.596;37.538;2022-07-23T06:29:49;8.27;;;5.40;;
34535;SDS011;20779;55.596;37.538;2022-07-23T06:32:15;10.45;;;6.13;;
34535;SDS011;20779;55.596;37.538;2022-07-23T06:34:42;8.40;;;5.75;;
34535;SDS011;20779;55.596;37.538;2022-07-23T06:37:08;8.48;;;5.40;;
34535;SDS011;20779;55.596;37.538;2022-07-23T06:39:34;10.30;;;5.65;;
34535;SDS011;20779;55.596;37.538;2022-07-23T06:42:00;9.07;;;5.55;;
34535;SDS011;20779;55.596;37.538;2022-07-23T06:44:43;7.30;;;5.80;;
34535;SDS011;20779;55.596;37.538;2022-07-23T06:47:09;8.48;;;5.45;;
34535;SDS011;20779;55.596;37.538;2022-07-23T06:49:35;8.02;;;5.18;;
34535;SDS011;20779;55.596;37.538;2022-07-23T06:52:02;10.73;;;5.80;;
34535;SDS011;20779;55.596;37.538;2022-07-23T06:54:28;13.30;;;6.22;;
34535;SDS011;20779;55.596;37.538;2022-07-23T06:56:54;7.40;;;5.55;;
34535;SDS011;20779;55.596;37.538;2022-07-23T06:59:20;9.07;;;5.55;;
34535;SDS011;20779;55.596;37.538;2022-07-23T07:01:46;10.02;;;5.45;;
34535;SDS011;20779;55.596;37.538;2022-07-23T07:04:12;10.75;;;5.75;;
34535;SDS011;20779;55.596;37.538;2022-07-23T07:06:38;8.07;;;5.28;;
34535;SDS011;20779;55.596;37.538;2022-07-23T07:09:05;9.70;;;5.55;;
34535;SDS011;20779;55.596;37.538;2022-07-23T07:11:31;15.77;;;6.05;;
34535;SDS011;20779;55.596;37.538;2022-07-23T07:13:57;9.75;;;5.55;;
34535;SDS011;20779;55.596;37.538;2022-07-23T07:16:23;9.52;;;5.72;;
34535;SDS011;20779;55.596;37.538;2022-07-23T07:18:49;11.35;;;6.07;;
34535;SDS011;20779;55.596;37.538;2022-07-23T07:21:15;7.95;;;5.15;;
34535;SDS011;20779;55.596;37.538;2022-07-23T07:23:42;10.60;;;5.13;;
34535;SDS011;20779;55.596;37.538;2022-07-23T07:26:08;8.38;;;5.40;;
34535;SDS011;20779;55.596;37.538;2022-07-23T07:28:34;9.23;;;6.18;;
34535;SDS011;20779;55.596;37.538;2022-07-23T07:31:00;12.30;;;6.00;;
34535;SDS011;20779;55.596;37.538;2022-07-23T07:33:27;11.60;;;5.88;;
34535;SDS011;20779;55.596;37.538;2022-07-23T07:35:54;11.15;;;6.03;;
34535;SDS011;20779;55.596;37.538;2022-07-23T07:38:20;10.38;;;6.10;;
34535;SDS011;20779;55.596;37.538;2022-07-23T07:40:46;8.50;;;5.70;;
34535;SDS011;20779;55.596;37.538;2022-07-23T07:43:12;9.07;;;6.00;;
34535;SDS011;20779;55.596;37.538;2022-07-23T07:45:38;6.63;;;5.20;;
34535;SDS011;20779;55.596;37.538;2022-07-23T07:48:05;8.60;;;5.68;;
34535;SDS011;20779;55.596;37.538;2022-07-23T07:50:31;6.68;;;5.53;;
34535;SDS011;20779;55.596;37.538;2022-07-23T07:52:57;7.68;;;5.25;;
34535;SDS011;20779;55.596;37.538;2022-07-23T07:55:23;6.70;;;5.45;;
34535;SDS011;20779;55.596;37.538;2022-07-23T07:57:50;8.02;;;5.63;;
34535;SDS011;20779;55.596;37.538;2022-07-23T08:00:16;8.35;;;5.35;;
34535;SDS011;20779;55.596;37.538;2022-07-23T08:02:47;9.05;;;4.93;;
34535;SDS011;20779;55.596;37.538;2022-07-23T08:05:19;9.23;;;5.35;;
34535;SDS011;20779;55.596;37.538;2022-07-23T08:07:47;11.60;;;5.53;;
34535;SDS011;20779;55.596;37.538;2022-07-23T08:10:14;11.95;;;5.90;;
34535;SDS011;20779;55.596;37.538;2022-07-23T08:12:48;7.60;;;5.30;;
34535;SDS011;20779;55.596;37.538;2022-07-23T08:15:22;8.55;;;5.90;;
34535;SDS011;20779;55.596;37.538;2022-07-23T08:17:50;9.38;;;5.50;;
34535;SDS011;20779;55.596;37.538;2022-07-23T08:20:17;8.32;;;5.43;;
34535;SDS011;20779;55.596;37.538;2022-07-23T08:22:47;7.85;;;5.30;;
34535;SDS011;20779;55.596;37.538;2022-07-23T08:25:21;9.38;;;5.65;;
34535;SDS011;20779;55.596;37.538;2022-07-23T08:28:07;7.05;;;5.72;;
34535;SDS011;20779;55.596;37.538;2022-07-23T08:30:36;8.73;;;5.82;;
34535;SDS011;20779;55.596;37.538;2022-07-23T08:33:05;7.30;;;5.80;;
34535;SDS011;20779;55.596;37.538;2022-07-23T08:35:40;7.47;;;5.43;;
34535;SDS011;20779;55.596;37.538;2022-07-23T08:38:13;8.27;;;5.97;;
34535;SDS011;20779;55.596;37.538;2022-07-23T08:40:45;8.80;;;5.90;;
34535;SDS011;20779;55.596;37.538;2022-07-23T08:43:20;9.82;;;5.78;;
34535;SDS011;20779;55.596;37.538;2022-07-23T08:45:51;14.45;;;5.63;;
34535;SDS011;20779;55.596;37.538;2022-07-23T08:50:51;8.00;;;5.93;;
34535;SDS011;20779;55.596;37.538;2022-07-23T08:53:21;9.60;;;6.33;;
34535;SDS011;20779;55.596;37.538;2022-07-23T08:55:49;9.65;;;6.00;;
34535;SDS011;20779;55.596;37.538;2022-07-23T08:58:21;12.43;;;5.90;;
34535;SDS011;20779;55.596;37.538;2022-07-23T09:00:48;7.43;;;5.72;;
34535;SDS011;20779;55.596;37.538;2022-07-23T09:03:23;11.63;;;6.90;;
34535;SDS011;20779;55.596;37.538;2022-07-23T09:05:53;7.95;;;6.10;;
34535;SDS011;20779;55.596;37.538;2022-07-23T09:08:23;9.80;;;6.15;;
34535;SDS011;20779;55.596;37.538;2022-07-23T09:11:12;8.10;;;5.88;;
34535;SDS011;20779;55.596;37.538;2022-07-23T09:16:28;8.60;;;6.10;;
34535;SDS011;20779;55.596;37.538;2022-07-23T09:34:31;7.60;;;6.00;;
34535;SDS011;20779;55.596;37.538;2022-07-23T09:37:13;9.07;;;6.60;;
34535;SDS011;20779;55.596;37.538;2022-07-23T09:39:42;8.20;;;6.70;;
34535;SDS011;20779;55.596;37.538;2022-07-23T09:44:49;10.10;;;6.13;;
34535;SDS011;20779;55.596;37.538;2022-07-23T09:47:18;7.97;;;5.97;;
34535;SDS011;20779;55.596;37.538;2022-07-23T09:52:34;10.95;;;6.05;;
34535;SDS011;20779;55.596;37.538;2022-07-23T09:55:16;11.25;;;6.60;;
34535;SDS011;20779;55.596;37.538;2022-07-23T09:57:44;8.13;;;6.18;;
34535;SDS011;20779;55.596;37.538;2022-07-23T10:00:15;8.02;;;6.47;;
34535;SDS011;20779;55.596;37.538;2022-07-23T10:02:41;10.50;;;6.18;;
34535;SDS011;20779;55.596;37.538;2022-07-23T10:05:26;12.73;;;6.28;;
34535;SDS011;20779;55.596;37.538;2022-07-23T10:07:56;8.90;;;6.72;;
34535;SDS011;20779;55.596;37.538;2022-07-23T10:10:40;8.55;;;6.20;;
34535;SDS011;20779;55.596;37.538;2022-07-23T10:13:25;15.18;;;6.25;;
34535;SDS011;20779;55.596;37.538;2022-07-23T10:16:12;13.38;;;6.38;;
34535;SDS011;20779;55.596;37.538;2022-07-23T10:18:39;10.27;;;6.65;;
34535;SDS011;20779;55.596;37.538;2022-07-23T10:21:06;12.23;;;6.63;;
34535;SDS011;20779;55.596;37.538;2022-07-23T10:23:35;13.70;;;5.95;;
34535;SDS011;20779;55.596;37.538;2022-07-23T10:32:37;8.60;;;6.50;;
34535;SDS011;20779;55.596;37.538;2022-07-23T10:35:37;10.77;;;5.97;;
34535;SDS011;20779;55.596;37.538;2022-07-23T10:38:24;9.63;;;6.18;;
34535;SDS011;20779;55.596;37.538;2022-07-23T10:40:59;11.93;;;6.82;;
34535;SDS011;20779;55.596;37.538;2022-07-23T10:43:29;9.25;;;6.50;;
34535;SDS011;20779;55.596;37.538;2022-07-23T10:45:56;7.95;;;6.07;;
34535;SDS011;20779;55.596;37.538;2022-07-23T10:54:40;10.02;;;6.82;;
34535;SDS011;20779;55.596;37.538;2022-07-23T10:57:19;10.75;;;6.75;;
34535;SDS011;20779;55.596;37.538;2022-07-23T11:02:35;12.02;;;7.10;;
34535;SDS011;20779;55.596;37.538;2022-07-23T11:05:06;8.10;;;6.57;;
34535;SDS011;20779;55.596;37.538;2022-07-23T11:07:35;9.40;;;6.95;;
34535;SDS011;20779;55.596;37.538;2022-07-23T11:10:37;11.10;;;7.60;;
34535;SDS011;20779;55.596;37.538;2022-07-23T11:24:00;10.75;;;7.20;;
34535;SDS011;20779;55.596;37.538;2022-07-23T11:26:45;9.60;;;6.85;;
34535;SDS011;20779;55.596;37.538;2022-07-23T11:34:50;11.73;;;6.95;;
34535;SDS011;20779;55.596;37.538;2022-07-23T11:40:10;11.13;;;7.25;;
34535;SDS011;20779;55.596;37.538;2022-07-23T11:42:39;10.82;;;6.85;;
34535;SDS011;20779;55.596;37.538;2022-07-23T11:45:21;9.90;;;7.20;;
34535;SDS011;20779;55.596;37.538;2022-07-23T11:47:48;8.35;;;6.78;;
34535;SDS011;20779;55.596;37.538;2022-07-23T11:50:15;10.43;;;7.03;;
34535;SDS011;20779;55.596;37.538;2022-07-23T11:52:41;11.43;;;7.15;;
34535;SDS011;20779;55.596;37.538;2022-07-23T11:55:08;12.02;;;8.13;;
34535;SDS011;20779;55.596;37.538;2022-07-23T11:57:38;10.25;;;7.15;;
34535;SDS011;20779;55.596;37.538;2022-07-23T12:00:10;10.18;;;6.75;;
34535;SDS011;20779;55.596;37.538;2022-07-23T12:02:46;10.13;;;6.63;;
34535;SDS011;20779;55.596;37.538;2022-07-23T12:05:19;8.38;;;6.47;;
34535;SDS011;20779;55.596;37.538;2022-07-23T12:07:48;8.93;;;6.93;;
34535;SDS011;20779;55.596;37.538;2022-07-23T12:10:24;11.27;;;6.85;;
34535;SDS011;20779;55.596;37.538;2022-07-23T12:13:06;9.20;;;7.05;;
34535;SDS011;20779;55.596;37.538;2022-07-23T12:15:44;9.20;;;7.47;;
34535;SDS011;20779;55.596;37.538;2022-07-23T12:18:22;9.73;;;6.60;;
34535;SDS011;20779;55.596;37.538;2022-07-23T12:20:51;11.85;;;7.20;;
34535;SDS011;20779;55.596;37.538;2022-07-23T12:23:21;9.40;;;6.20;;
34535;SDS011;20779;55.596;37.538;2022-07-23T12:25:49;8.25;;;6.80;;
34535;SDS011;20779;55.596;37.538;2022-07-23T12:30:56;7.43;;;6.63;;
34535;SDS011;20779;55.596;37.538;2022-07-23T12:33:25;8.15;;;6.63;;
34535;SDS011;20779;55.596;37.538;2022-07-23T12:36:00;10.77;;;6.55;;
34535;SDS011;20779;55.596;37.538;2022-07-23T12:38:37;11.27;;;6.97;;
34535;SDS011;20779;55.596;37.538;2022-07-23T12:41:12;8.75;;;6.57;;
34535;SDS011;20779;55.596;37.538;2022-07-23T12:43:39;10.05;;;7.07;;
34535;SDS011;20779;55.596;37.538;2022-07-23T12:46:09;11.70;;;7.20;;
34535;SDS011;20779;55.596;37.538;2022-07-23T12:53:53;9.80;;;6.75;;
34535;SDS011;20779;55.596;37.538;2022-07-23T12:56:28;6.70;;;6.00;;
34535;SDS011;20779;55.596;37.538;2022-07-23T12:58:58;7.20;;;6.50;;
34535;SDS011;20779;55.596;37.538;2022-07-23T13:01:39;8.88;;;6.97;;
34535;SDS011;20779;55.596;37.538;2022-07-23T13:04:11;9.70;;;6.45;;
34535;SDS011;20779;55.596;37.538;2022-07-23T13:09:15;8.77;;;6.22;;
34535;SDS011;20779;55.596;37.538;2022-07-23T13:11:45;7.40;;;5.93;;
34535;SDS011;20779;55.596;37.538;2022-07-23T13:14:13;9.57;;;6.13;;
34535;SDS011;20779;55.596;37.538;2022-07-23T13:16:41;7.90;;;7.05;;
34535;SDS011;20779;55.596;37.538;2022-07-23T13:19:09;7.50;;;6.15;;
34535;SDS011;20779;55.596;37.538;2022-07-23T13:21:36;9.23;;;6.78;;
34535;SDS011;20779;55.596;37.538;2022-07-23T13:24:03;7.78;;;6.15;;
34535;SDS011;20779;55.596;37.538;2022-07-23T13:26:29;7.10;;;6.40;;
34535;SDS011;20779;55.596;37.538;2022-07-23T13:28:55;8.88;;;6.30;;
34535;SDS011;20779;55.596;37.538;2022-07-23T13:31:22;11.25;;;6.25;;
34535;SDS011;20779;55.596;37.538;2022-07-23T13:33:48;9.40;;;6.32;;
34535;SDS011;20779;55.596;37.538;2022-07-23T13:36:15;9.68;;;6.70;;
34535;SDS011;20779;55.596;37.538;2022-07-23T13:38:41;9.27;;;6.47;;
34535;SDS011;20779;55.596;37.538;2022-07-23T13:41:07;8.70;;;6.13;;
34535;SDS011;20779;55.596;37.538;2022-07-23T13:43:33;7.95;;;6.07;;
34535;SDS011;20779;55.596;37.538;2022-07-23T13:45:59;9.10;;;6.68;;
34535;SDS011;20779;55.596;37.538;2022-07-23T13:48:26;8.15;;;5.95;;
34535;SDS011;20779;55.596;37.538;2022-07-23T13:50:54;8.65;;;6.15;;
34535;SDS011;20779;55.596;37.538;2022-07-23T14:53:14;9.07;;;6.25;;
34535;SDS011;20779;55.596;37.538;2022-07-23T14:55:40;7.00;;;6.13;;
34535;SDS011;20779;55.596;37.538;2022-07-23T14:58:06;7.20;;;5.78;;
34535;SDS011;20779;55.596;37.538;2022-07-23T15:00:32;9.48;;;5.43;;
34535;SDS011;20779;55.596;37.538;2022-07-23T15:02:58;7.30;;;5.40;;
34535;SDS011;20779;55.596;37.538;2022-07-23T15:05:24;9.55;;;5.85;;
34535;SDS011;20779;55.596;37.538;2022-07-23T15:07:51;9.45;;;6.50;;
34535;SDS011;20779;55.596;37.538;2022-07-23T15:10:17;7.55;;;5.95;;
34535;SDS011;20779;55.596;37.538;2022-07-23T15:12:43;11.63;;;6.03;;
34535;SDS011;20779;55.596;37.538;2022-07-23T15:15:09;7.88;;;5.65;;
34535;SDS011;20779;55.596;37.538;2022-07-23T15:17:35;7.18;;;5.65;;
34535;SDS011;20779;55.596;37.538;2022-07-23T15:20:02;13.10;;;6.00;;
34535;SDS011;20779;55.596;37.538;2022-07-23T15:22:29;7.35;;;6.20;;
34535;SDS011;20779;55.596;37.538;2022-07-23T15:24:56;9.73;;;6.40;;
34535;SDS011;20779;55.596;37.538;2022-07-23T15:27:22;8.07;;;5.70;;
34535;SDS011;20779;55.596;37.538;2022-07-23T15:29:48;6.78;;;5.78;;
34535;SDS011;20779;55.596;37.538;2022-07-23T15:32:14;8.23;;;6.03;;
34535;SDS011;20779;55.596;37.538;2022-07-23T15:34:40;8.05;;;6.18;;
34535;SDS011;20779;55.596;37.538;2022-07-23T15:37:06;6.68;;;5.50;;
34535;SDS011;20779;55.596;37.538;2022-07-23T15:39:33;9.02;;;6.30;;
34535;SDS011;20779;55.596;37.538;2022-07-23T15:41:59;6.68;;;5.53;;
34535;SDS011;20779;55.596;37.538;2022-07-23T15:44:27;8.60;;;5.72;;
34535;SDS011;20779;55.596;37.538;2022-07-23T15:46:53;9.73;;;5.88;;
34535;SDS011;20779;55.596;37.538;2022-07-23T15:49:21;18.17;;;6.43;;
34535;SDS011;20779;55.596;37.538;2022-07-23T15:51:47;11.63;;;6.68;;
34535;SDS011;20779;55.596;37.538;2022-07-23T15:54:13;8.57;;;5.63;;
34535;SDS011;20779;55.596;37.538;2022-07-23T15:56:39;9.30;;;6.28;;
34535;SDS011;20779;55.596;37.538;2022-07-23T15:59:07;10.15;;;6.00;;
34535;SDS011;20779;55.596;37.538;2022-07-23T16:01:34;18.00;;;8.95;;
34535;SDS011;20779;55.596;37.538;2022-07-23T16:04:00;7.80;;;6.07;;
34535;SDS011;20779;55.596;37.538;2022-07-23T16:06:26;8.30;;;6.13;;
34535;SDS011;20779;55.596;37.538;2022-07-23T16:08:52;9.40;;;6.05;;
34535;SDS011;20779;55.596;37.538;2022-07-23T16:11:18;8.50;;;6.03;;
34535;SDS011;20779;55.596;37.538;2022-07-23T16:13:45;9.20;;;6.15;;
34535;SDS011;20779;55.596;37.538;2022-07-23T16:16:11;8.65;;;5.72;;
34535;SDS011;20779;55.596;37.538;2022-07-23T16:18:37;9.60;;;5.78;;
34535;SDS011;20779;55.596;37.538;2022-07-23T16:21:04;9.90;;;5.55;;
34535;SDS011;20779;55.596;37.538;2022-07-23T16:23:30;8.57;;;6.13;;
34535;SDS011;20779;55.596;37.538;2022-07-23T16:25:58;9.93;;;5.47;;
34535;SDS011;20779;55.596;37.538;2022-07-23T16:28:25;10.13;;;6.03;;
34535;SDS011;20779;55.596;37.538;2022-07-23T16:30:51;10.55;;;5.88;;
34535;SDS011;20779;55.596;37.538;2022-07-23T16:33:17;8.13;;;6.18;;
34535;SDS011;20779;55.596;37.538;2022-07-23T16:35:43;6.78;;;5.72;;
34535;SDS011;20779;55.596;37.538;2022-07-23T16:38:09;9.15;;;5.70;;
34535;SDS011;20779;55.596;37.538;2022-07-23T16:40:36;8.25;;;5.45;;
34535;SDS011;20779;55.596;37.538;2022-07-23T16:43:02;9.55;;;6.18;;
34535;SDS011;20779;55.596;37.538;2022-07-23T16:45:28;8.40;;;5.85;;
34535;SDS011;20779;55.596;37.538;2022-07-23T16:47:55;10.52;;;5.78;;
34535;SDS011;20779;55.596;37.538;2022-07-23T16:50:22;7.95;;;6.00;;
34535;SDS011;20779;55.596;37.538;2022-07-23T16:52:49;9.52;;;5.93;;